sensor_id;sensor_type;location;lat;lon;timestamp;temperature;humidity
72952;HTU21D;61102;51.956;5.878;2023-03-01T00:00:04;4.16;44.29
72952;HTU21D;61102;51.956;5.878;2023-03-01T00:02:37;4.13;44.32
72952;HTU21D;61102;51.956;5.878;2023-03-01T00:05:03;4.07;44.54
72952;HTU21D;61102;51.956;5.878;2023-03-01T00:07:30;4.04;44.57
72952;HTU21D;61102;51.956;5.878;2023-03-01T00:09:58;4.04;44.54
72952;HTU21D;61102;51.956;5.878;2023-03-01T00:12:24;4.02;44.57
72952;HTU21D;61102;51.956;5.878;2023-03-01T00:14:50;4.00;44.60
72952;HTU21D;61102;51.956;5.878;2023-03-01T00:17:16;3.97;44.61
72952;HTU21D;61102;51.956;5.878;2023-03-01T00:19:42;3.91;44.66
72952;HTU21D;61102;51.956;5.878;2023-03-01T00:22:12;3.87;44.83
72952;HTU21D;61102;51.956;5.878;2023-03-01T00:24:38;3.85;44.70
72952;HTU21D;61102;51.956;5.878;2023-03-01T00:27:04;3.80;44.69
72952;HTU21D;61102;51.956;5.878;2023-03-01T00:29:30;3.78;44.70
72952;HTU21D;61102;51.956;5.878;2023-03-01T00:31:56;3.74;44.75
72952;HTU21D;61102;51.956;5.878;2023-03-01T00:34:22;3.73;44.77
72952;HTU21D;61102;51.956;5.878;2023-03-01T00:36:48;3.72;44.84
72952;HTU21D;61102;51.956;5.878;2023-03-01T00:39:15;3.71;44.87
72952;HTU21D;61102;51.956;5.878;2023-03-01T00:41:42;3.67;44.96
72952;HTU21D;61102;51.956;5.878;2023-03-01T00:44:11;3.65;45.12
72952;HTU21D;61102;51.956;5.878;2023-03-01T00:46:38;3.64;45.04
72952;HTU21D;61102;51.956;5.878;2023-03-01T00:49:04;3.64;45.10
72952;HTU21D;61102;51.956;5.878;2023-03-01T00:51:30;3.61;45.22
72952;HTU21D;61102;51.956;5.878;2023-03-01T00:53:58;3.58;45.45
72952;HTU21D;61102;51.956;5.878;2023-03-01T00:56:25;3.58;45.41
72952;HTU21D;61102;51.956;5.878;2023-03-01T00:59:02;3.58;45.64
72952;HTU21D;61102;51.956;5.878;2023-03-01T01:01:30;3.57;45.45
72952;HTU21D;61102;51.956;5.878;2023-03-01T01:03:59;3.56;45.51
72952;HTU21D;61102;51.956;5.878;2023-03-01T01:06:28;3.52;45.60
72952;HTU21D;61102;51.956;5.878;2023-03-01T01:08:56;3.53;45.57
72952;HTU21D;61102;51.956;5.878;2023-03-01T01:11:24;3.49;45.68
72952;HTU21D;61102;51.956;5.878;2023-03-01T01:13:51;3.48;45.64
72952;HTU21D;61102;51.956;5.878;2023-03-01T01:16:19;3.47;45.73
72952;HTU21D;61102;51.956;5.878;2023-03-01T01:18:46;3.46;45.79
72952;HTU21D;61102;51.956;5.878;2023-03-01T01:21:15;3.46;45.96
72952;HTU21D;61102;51.956;5.878;2023-03-01T01:23:42;3.48;45.96
72952;HTU21D;61102;51.956;5.878;2023-03-01T01:26:11;3.53;46.22
72952;HTU21D;61102;51.956;5.878;2023-03-01T01:28:38;3.58;46.14
72952;HTU21D;61102;51.956;5.878;2023-03-01T01:31:05;3.59;46.39
72952;HTU21D;61102;51.956;5.878;2023-03-01T01:33:32;3.60;46.56
72952;HTU21D;61102;51.956;5.878;2023-03-01T01:35:58;3.60;46.54
72952;HTU21D;61102;51.956;5.878;2023-03-01T01:38:24;3.62;46.63
72952;HTU21D;61102;51.956;5.878;2023-03-01T01:40:51;3.67;46.86
72952;HTU21D;61102;51.956;5.878;2023-03-01T01:43:25;3.68;47.31
72952;HTU21D;61102;51.956;5.878;2023-03-01T01:45:56;3.74;47.50
72952;HTU21D;61102;51.956;5.878;2023-03-01T01:48:25;3.78;47.43
72952;HTU21D;61102;51.956;5.878;2023-03-01T01:51:02;3.86;47.26
72952;HTU21D;61102;51.956;5.878;2023-03-01T01:53:28;3.87;47.12
72952;HTU21D;61102;51.956;5.878;2023-03-01T01:55:56;3.87;47.12
72952;HTU21D;61102;51.956;5.878;2023-03-01T01:58:28;3.89;47.15
72952;HTU21D;61102;51.956;5.878;2023-03-01T02:00:55;3.90;46.89
72952;HTU21D;61102;51.956;5.878;2023-03-01T02:03:29;3.89;47.02
72952;HTU21D;61102;51.956;5.878;2023-03-01T02:06:06;3.88;46.81
72952;HTU21D;61102;51.956;5.878;2023-03-01T02:08:38;3.86;46.81
72952;HTU21D;61102;51.956;5.878;2023-03-01T02:11:05;3.83;46.80
72952;HTU21D;61102;51.956;5.878;2023-03-01T02:13:32;3.83;46.83
72952;HTU21D;61102;51.956;5.878;2023-03-01T02:16:02;3.84;46.87
72952;HTU21D;61102;51.956;5.878;2023-03-01T02:18:28;3.84;46.91
72952;HTU21D;61102;51.956;5.878;2023-03-01T02:23:28;3.79;47.21
72952;HTU21D;61102;51.956;5.878;2023-03-01T02:28:37;3.90;46.83
72952;HTU21D;61102;51.956;5.878;2023-03-01T02:31:09;3.84;47.03
72952;HTU21D;61102;51.956;5.878;2023-03-01T02:33:54;3.82;46.95
72952;HTU21D;61102;51.956;5.878;2023-03-01T02:36:24;3.78;47.02
72952;HTU21D;61102;51.956;5.878;2023-03-01T02:38:53;3.77;47.02
72952;HTU21D;61102;51.956;5.878;2023-03-01T02:41:23;3.76;47.02
72952;HTU21D;61102;51.956;5.878;2023-03-01T02:43:50;3.74;46.96
72952;HTU21D;61102;51.956;5.878;2023-03-01T02:46:19;3.72;46.96
72952;HTU21D;61102;51.956;5.878;2023-03-01T02:48:55;3.70;46.91
72952;HTU21D;61102;51.956;5.878;2023-03-01T02:56:44;3.60;46.83
72952;HTU21D;61102;51.956;5.878;2023-03-01T02:59:19;3.57;46.93
72952;HTU21D;61102;51.956;5.878;2023-03-01T03:01:46;3.53;46.94
72952;HTU21D;61102;51.956;5.878;2023-03-01T03:04:17;3.48;47.09
72952;HTU21D;61102;51.956;5.878;2023-03-01T03:06:47;3.44;46.90
72952;HTU21D;61102;51.956;5.878;2023-03-01T03:09:16;3.39;46.93
72952;HTU21D;61102;51.956;5.878;2023-03-01T03:11:42;3.34;46.92
72952;HTU21D;61102;51.956;5.878;2023-03-01T03:14:11;3.28;46.97
72952;HTU21D;61102;51.956;5.878;2023-03-01T03:16:46;3.24;47.12
72952;HTU21D;61102;51.956;5.878;2023-03-01T03:19:12;3.20;46.97
72952;HTU21D;61102;51.956;5.878;2023-03-01T03:21:39;3.15;47.00
72952;HTU21D;61102;51.956;5.878;2023-03-01T03:24:05;3.14;46.99
72952;HTU21D;61102;51.956;5.878;2023-03-01T03:26:32;3.11;47.02
72952;HTU21D;61102;51.956;5.878;2023-03-01T03:28:58;3.08;47.02
72952;HTU21D;61102;51.956;5.878;2023-03-01T03:31:24;3.03;47.08
72952;HTU21D;61102;51.956;5.878;2023-03-01T03:33:50;3.00;47.12
72952;HTU21D;61102;51.956;5.878;2023-03-01T03:36:19;2.94;47.20
72952;HTU21D;61102;51.956;5.878;2023-03-01T03:38:45;2.94;47.18
72952;HTU21D;61102;51.956;5.878;2023-03-01T03:41:12;2.90;47.23
72952;HTU21D;61102;51.956;5.878;2023-03-01T03:43:39;2.89;47.25
72952;HTU21D;61102;51.956;5.878;2023-03-01T03:46:07;2.89;47.25
72952;HTU21D;61102;51.956;5.878;2023-03-01T03:48:34;2.87;47.28
72952;HTU21D;61102;51.956;5.878;2023-03-01T03:51:00;2.87;47.28
72952;HTU21D;61102;51.956;5.878;2023-03-01T03:53:28;2.82;47.34
72952;HTU21D;61102;51.956;5.878;2023-03-01T03:55:54;3.02;46.93
72952;HTU21D;61102;51.956;5.878;2023-03-01T03:58:22;2.87;47.04
72952;HTU21D;61102;51.956;5.878;2023-03-01T04:00:52;2.79;47.21
72952;HTU21D;61102;51.956;5.878;2023-03-01T04:03:20;2.74;47.28
72952;HTU21D;61102;51.956;5.878;2023-03-01T04:05:46;2.72;47.35
72952;HTU21D;61102;51.956;5.878;2023-03-01T04:08:13;2.68;47.44
72952;HTU21D;61102;51.956;5.878;2023-03-01T04:10:41;2.68;47.54
72952;HTU21D;61102;51.956;5.878;2023-03-01T04:13:13;2.67;47.65
72952;HTU21D;61102;51.956;5.878;2023-03-01T04:15:40;2.69;47.63
72952;HTU21D;61102;51.956;5.878;2023-03-01T04:18:06;2.67;47.77
72952;HTU21D;61102;51.956;5.878;2023-03-01T04:20:34;2.64;47.88
72952;HTU21D;61102;51.956;5.878;2023-03-01T04:23:06;2.64;48.02
72952;HTU21D;61102;51.956;5.878;2023-03-01T04:25:51;2.61;48.05
72952;HTU21D;61102;51.956;5.878;2023-03-01T04:28:26;2.59;47.99
72952;HTU21D;61102;51.956;5.878;2023-03-01T04:30:54;2.58;47.91
72952;HTU21D;61102;51.956;5.878;2023-03-01T04:33:21;2.81;47.47
72952;HTU21D;61102;51.956;5.878;2023-03-01T04:35:47;2.68;47.53
72952;HTU21D;61102;51.956;5.878;2023-03-01T04:38:18;2.83;47.52
72952;HTU21D;61102;51.956;5.878;2023-03-01T04:40:44;2.67;47.60
72952;HTU21D;61102;51.956;5.878;2023-03-01T04:43:12;2.58;47.81
72952;HTU21D;61102;51.956;5.878;2023-03-01T04:45:41;2.57;47.90
72952;HTU21D;61102;51.956;5.878;2023-03-01T04:48:07;2.53;47.96
72952;HTU21D;61102;51.956;5.878;2023-03-01T04:50:34;2.47;48.07
72952;HTU21D;61102;51.956;5.878;2023-03-01T04:53:01;2.43;48.12
72952;HTU21D;61102;51.956;5.878;2023-03-01T04:55:28;2.38;48.19
72952;HTU21D;61102;51.956;5.878;2023-03-01T04:57:54;2.36;48.24
72952;HTU21D;61102;51.956;5.878;2023-03-01T05:00:21;2.31;48.28
72952;HTU21D;61102;51.956;5.878;2023-03-01T05:02:56;2.28;48.44
72952;HTU21D;61102;51.956;5.878;2023-03-01T05:05:28;2.28;48.47
72952;HTU21D;61102;51.956;5.878;2023-03-01T05:07:57;2.28;48.31
72952;HTU21D;61102;51.956;5.878;2023-03-01T05:10:24;2.27;48.32
72952;HTU21D;61102;51.956;5.878;2023-03-01T05:12:51;2.24;48.31
72952;HTU21D;61102;51.956;5.878;2023-03-01T05:15:18;2.22;48.33
72952;HTU21D;61102;51.956;5.878;2023-03-01T05:17:48;2.21;48.34
72952;HTU21D;61102;51.956;5.878;2023-03-01T05:20:16;2.22;48.31
72952;HTU21D;61102;51.956;5.878;2023-03-01T05:22:43;2.22;48.31
72952;HTU21D;61102;51.956;5.878;2023-03-01T05:25:09;2.21;48.33
72952;HTU21D;61102;51.956;5.878;2023-03-01T05:27:35;2.21;48.34
72952;HTU21D;61102;51.956;5.878;2023-03-01T05:30:03;2.22;48.39
72952;HTU21D;61102;51.956;5.878;2023-03-01T05:32:44;2.16;48.53
72952;HTU21D;61102;51.956;5.878;2023-03-01T05:35:12;2.14;48.49
72952;HTU21D;61102;51.956;5.878;2023-03-01T05:37:46;2.11;48.60
72952;HTU21D;61102;51.956;5.878;2023-03-01T05:40:15;2.10;48.53
72952;HTU21D;61102;51.956;5.878;2023-03-01T05:42:55;2.09;48.78
72952;HTU21D;61102;51.956;5.878;2023-03-01T05:45:23;2.09;48.58
72952;HTU21D;61102;51.956;5.878;2023-03-01T05:47:50;2.29;48.21
72952;HTU21D;61102;51.956;5.878;2023-03-01T05:50:28;2.16;48.25
72952;HTU21D;61102;51.956;5.878;2023-03-01T05:55:35;2.09;48.54
72952;HTU21D;61102;51.956;5.878;2023-03-01T05:58:03;2.09;48.62
72952;HTU21D;61102;51.956;5.878;2023-03-01T06:00:30;2.05;48.70
72952;HTU21D;61102;51.956;5.878;2023-03-01T06:02:57;2.03;48.79
72952;HTU21D;61102;51.956;5.878;2023-03-01T06:05:25;2.01;48.82
72952;HTU21D;61102;51.956;5.878;2023-03-01T06:07:51;1.96;48.91
72952;HTU21D;61102;51.956;5.878;2023-03-01T06:10:20;1.96;48.95
72952;HTU21D;61102;51.956;5.878;2023-03-01T06:12:46;2.17;48.53
72952;HTU21D;61102;51.956;5.878;2023-03-01T06:15:14;2.01;48.57
72952;HTU21D;61102;51.956;5.878;2023-03-01T06:17:45;1.95;48.82
72952;HTU21D;61102;51.956;5.878;2023-03-01T06:20:20;1.92;49.01
72952;HTU21D;61102;51.956;5.878;2023-03-01T06:22:47;1.92;48.80
72952;HTU21D;61102;51.956;5.878;2023-03-01T06:25:17;1.92;48.86
72952;HTU21D;61102;51.956;5.878;2023-03-01T06:27:44;1.91;48.89
72952;HTU21D;61102;51.956;5.878;2023-03-01T06:30:13;1.90;49.00
72952;HTU21D;61102;51.956;5.878;2023-03-01T06:32:40;1.91;49.01
72952;HTU21D;61102;51.956;5.878;2023-03-01T06:35:09;1.92;49.02
72952;HTU21D;61102;51.956;5.878;2023-03-01T06:37:36;1.94;49.05
72952;HTU21D;61102;51.956;5.878;2023-03-01T06:40:04;1.95;49.08
72952;HTU21D;61102;51.956;5.878;2023-03-01T06:42:37;1.98;49.13
72952;HTU21D;61102;51.956;5.878;2023-03-01T06:45:05;2.00;49.02
72952;HTU21D;61102;51.956;5.878;2023-03-01T06:47:32;2.03;49.00
72952;HTU21D;61102;51.956;5.878;2023-03-01T06:50:02;2.05;49.05
72952;HTU21D;61102;51.956;5.878;2023-03-01T06:52:28;2.07;49.05
72952;HTU21D;61102;51.956;5.878;2023-03-01T06:54:55;2.09;49.25
72952;HTU21D;61102;51.956;5.878;2023-03-01T06:57:23;2.13;49.37
72952;HTU21D;61102;51.956;5.878;2023-03-01T06:59:49;2.21;49.34
72952;HTU21D;61102;51.956;5.878;2023-03-01T07:02:16;2.28;49.53
72952;HTU21D;61102;51.956;5.878;2023-03-01T07:04:42;2.39;49.49
72952;HTU21D;61102;51.956;5.878;2023-03-01T07:07:08;2.47;49.46
72952;HTU21D;61102;51.956;5.878;2023-03-01T07:09:34;2.59;49.53
72952;HTU21D;61102;51.956;5.878;2023-03-01T07:12:01;2.67;49.60
72952;HTU21D;61102;51.956;5.878;2023-03-01T07:14:27;2.80;49.79
72952;HTU21D;61102;51.956;5.878;2023-03-01T07:16:53;2.90;49.85
72952;HTU21D;61102;51.956;5.878;2023-03-01T07:19:20;3.02;50.06
72952;HTU21D;61102;51.956;5.878;2023-03-01T07:21:47;3.16;50.21
72952;HTU21D;61102;51.956;5.878;2023-03-01T07:24:13;3.26;50.26
72952;HTU21D;61102;51.956;5.878;2023-03-01T07:26:39;3.39;50.34
72952;HTU21D;61102;51.956;5.878;2023-03-01T07:29:06;3.47;50.30
72952;HTU21D;61102;51.956;5.878;2023-03-01T07:31:33;3.60;50.24
72952;HTU21D;61102;51.956;5.878;2023-03-01T07:33:59;3.71;50.15
72952;HTU21D;61102;51.956;5.878;2023-03-01T07:36:25;3.79;50.02
72952;HTU21D;61102;51.956;5.878;2023-03-01T07:38:51;3.88;49.90
72952;HTU21D;61102;51.956;5.878;2023-03-01T07:41:17;3.95;49.76
72952;HTU21D;61102;51.956;5.878;2023-03-01T07:43:44;4.02;49.65
72952;HTU21D;61102;51.956;5.878;2023-03-01T07:46:10;4.12;49.55
72952;HTU21D;61102;51.956;5.878;2023-03-01T07:48:36;4.16;49.50
72952;HTU21D;61102;51.956;5.878;2023-03-01T07:51:04;4.22;49.49
72952;HTU21D;61102;51.956;5.878;2023-03-01T07:53:31;4.30;49.33
72952;HTU21D;61102;51.956;5.878;2023-03-01T07:56:09;4.41;49.49
72952;HTU21D;61102;51.956;5.878;2023-03-01T07:58:41;4.50;49.27
72952;HTU21D;61102;51.956;5.878;2023-03-01T08:01:11;4.58;49.08
72952;HTU21D;61102;51.956;5.878;2023-03-01T08:03:38;4.69;48.79
72952;HTU21D;61102;51.956;5.878;2023-03-01T08:06:07;4.77;48.76
72952;HTU21D;61102;51.956;5.878;2023-03-01T08:08:33;4.92;48.50
72952;HTU21D;61102;51.956;5.878;2023-03-01T08:11:01;4.98;48.29
72952;HTU21D;61102;51.956;5.878;2023-03-01T08:13:28;5.10;48.23
72952;HTU21D;61102;51.956;5.878;2023-03-01T08:15:54;5.22;47.81
72952;HTU21D;61102;51.956;5.878;2023-03-01T08:18:21;5.33;47.63
72952;HTU21D;61102;51.956;5.878;2023-03-01T08:20:47;5.43;47.43
72952;HTU21D;61102;51.956;5.878;2023-03-01T08:23:13;5.57;47.38
72952;HTU21D;61102;51.956;5.878;2023-03-01T08:25:39;5.69;47.05
72952;HTU21D;61102;51.956;5.878;2023-03-01T08:28:07;5.77;46.70
72952;HTU21D;61102;51.956;5.878;2023-03-01T08:30:34;5.90;46.35
72952;HTU21D;61102;51.956;5.878;2023-03-01T08:33:00;6.02;46.40
72952;HTU21D;61102;51.956;5.878;2023-03-01T08:35:26;6.19;46.16
72952;HTU21D;61102;51.956;5.878;2023-03-01T08:37:52;6.30;45.96
72952;HTU21D;61102;51.956;5.878;2023-03-01T08:40:21;6.43;45.54
72952;HTU21D;61102;51.956;5.878;2023-03-01T08:42:47;6.58;45.35
72952;HTU21D;61102;51.956;5.878;2023-03-01T08:45:13;6.72;45.30
72952;HTU21D;61102;51.956;5.878;2023-03-01T08:47:44;6.87;45.06
72952;HTU21D;61102;51.956;5.878;2023-03-01T08:50:11;7.03;44.78
72952;HTU21D;61102;51.956;5.878;2023-03-01T08:52:37;7.17;44.50
72952;HTU21D;61102;51.956;5.878;2023-03-01T08:55:03;7.27;43.80
72952;HTU21D;61102;51.956;5.878;2023-03-01T08:57:29;7.39;43.82
72952;HTU21D;61102;51.956;5.878;2023-03-01T08:59:55;7.53;43.55
72952;HTU21D;61102;51.956;5.878;2023-03-01T09:02:22;7.63;43.23
72952;HTU21D;61102;51.956;5.878;2023-03-01T09:04:48;7.78;42.83
72952;HTU21D;61102;51.956;5.878;2023-03-01T09:07:14;7.89;42.23
72952;HTU21D;61102;51.956;5.878;2023-03-01T09:09:40;8.00;41.91
72952;HTU21D;61102;51.956;5.878;2023-03-01T09:12:06;8.09;41.33
72952;HTU21D;61102;51.956;5.878;2023-03-01T09:14:33;8.18;41.00
72952;HTU21D;61102;51.956;5.878;2023-03-01T09:16:59;8.29;40.61
72952;HTU21D;61102;51.956;5.878;2023-03-01T09:19:29;8.38;40.65
72952;HTU21D;61102;51.956;5.878;2023-03-01T09:21:55;8.51;40.62
72952;HTU21D;61102;51.956;5.878;2023-03-01T09:24:23;8.63;40.30
72952;HTU21D;61102;51.956;5.878;2023-03-01T09:26:53;8.74;39.72
72952;HTU21D;61102;51.956;5.878;2023-03-01T09:29:19;8.85;39.43
72952;HTU21D;61102;51.956;5.878;2023-03-01T09:31:45;8.94;39.34
72952;HTU21D;61102;51.956;5.878;2023-03-01T09:34:11;9.03;39.09
72952;HTU21D;61102;51.956;5.878;2023-03-01T09:36:38;9.06;38.34
72952;HTU21D;61102;51.956;5.878;2023-03-01T09:39:04;9.16;38.43
72952;HTU21D;61102;51.956;5.878;2023-03-01T09:42:00;9.35;37.79
72952;HTU21D;61102;51.956;5.878;2023-03-01T09:44:51;9.44;37.85
72952;HTU21D;61102;51.956;5.878;2023-03-01T09:47:21;9.40;38.25
72952;HTU21D;61102;51.956;5.878;2023-03-01T09:50:18;9.55;38.17
72952;HTU21D;61102;51.956;5.878;2023-03-01T09:55:15;9.74;37.66
72952;HTU21D;61102;51.956;5.878;2023-03-01T10:00:30;9.95;37.21
72952;HTU21D;61102;51.956;5.878;2023-03-01T10:03:11;9.93;36.83
72952;HTU21D;61102;51.956;5.878;2023-03-01T10:08:42;9.83;36.04
72952;HTU21D;61102;51.956;5.878;2023-03-01T10:11:41;9.94;35.68
72952;HTU21D;61102;51.956;5.878;2023-03-01T10:16:55;10.00;36.07
72952;HTU21D;61102;51.956;5.878;2023-03-01T10:19:31;10.05;36.14
72952;HTU21D;61102;51.956;5.878;2023-03-01T10:22:03;10.10;35.95
72952;HTU21D;61102;51.956;5.878;2023-03-01T10:24:34;10.15;35.43
72952;HTU21D;61102;51.956;5.878;2023-03-01T10:32:37;10.18;34.60
72952;HTU21D;61102;51.956;5.878;2023-03-01T10:35:28;10.22;34.19
72952;HTU21D;61102;51.956;5.878;2023-03-01T10:38:02;10.06;33.72
72952;HTU21D;61102;51.956;5.878;2023-03-01T10:40:29;9.99;34.18
72952;HTU21D;61102;51.956;5.878;2023-03-01T10:42:58;10.01;34.57
72952;HTU21D;61102;51.956;5.878;2023-03-01T10:45:37;10.10;34.61
72952;HTU21D;61102;51.956;5.878;2023-03-01T10:48:22;10.18;35.03
72952;HTU21D;61102;51.956;5.878;2023-03-01T10:51:15;10.23;34.79
72952;HTU21D;61102;51.956;5.878;2023-03-01T10:53:41;10.29;34.43
72952;HTU21D;61102;51.956;5.878;2023-03-01T10:56:13;10.31;34.64
72952;HTU21D;61102;51.956;5.878;2023-03-01T11:01:33;10.39;34.26
72952;HTU21D;61102;51.956;5.878;2023-03-01T11:06:34;10.34;34.50
72952;HTU21D;61102;51.956;5.878;2023-03-01T11:09:18;10.46;34.03
72952;HTU21D;61102;51.956;5.878;2023-03-01T11:11:45;10.36;33.47
72952;HTU21D;61102;51.956;5.878;2023-03-01T11:14:20;10.39;33.60
72952;HTU21D;61102;51.956;5.878;2023-03-01T11:16:57;10.35;33.19
72952;HTU21D;61102;51.956;5.878;2023-03-01T11:19:25;10.37;33.57
72952;HTU21D;61102;51.956;5.878;2023-03-01T11:22:03;10.44;33.89
72952;HTU21D;61102;51.956;5.878;2023-03-01T11:24:41;10.49;34.10
72952;HTU21D;61102;51.956;5.878;2023-03-01T11:27:21;10.67;34.03
72952;HTU21D;61102;51.956;5.878;2023-03-01T11:32:19;10.78;32.92
72952;HTU21D;61102;51.956;5.878;2023-03-01T11:35:04;10.77;32.75
72952;HTU21D;61102;51.956;5.878;2023-03-01T11:37:36;10.72;32.39
72952;HTU21D;61102;51.956;5.878;2023-03-01T11:45:10;10.60;32.44
72952;HTU21D;61102;51.956;5.878;2023-03-01T11:56:11;10.97;32.22
72952;HTU21D;61102;51.956;5.878;2023-03-01T12:08:00;10.86;31.57
72952;HTU21D;61102;51.956;5.878;2023-03-01T12:10:38;10.84;31.88
72952;HTU21D;61102;51.956;5.878;2023-03-01T12:16:29;10.89;31.57
72952;HTU21D;61102;51.956;5.878;2023-03-01T12:22:35;10.87;31.77
72952;HTU21D;61102;51.956;5.878;2023-03-01T12:25:28;10.95;31.95
72952;HTU21D;61102;51.956;5.878;2023-03-01T12:30:59;11.10;31.61
72952;HTU21D;61102;51.956;5.878;2023-03-01T12:39:30;11.20;30.79
72952;HTU21D;61102;51.956;5.878;2023-03-01T12:53:36;12.17;29.65
72952;HTU21D;61102;51.956;5.878;2023-03-01T12:56:10;12.49;29.60
72952;HTU21D;61102;51.956;5.878;2023-03-01T12:58:59;12.82;29.30
72952;HTU21D;61102;51.956;5.878;2023-03-01T13:04:50;12.84;28.44
72952;HTU21D;61102;51.956;5.878;2023-03-01T13:13:23;12.88;27.85
72952;HTU21D;61102;51.956;5.878;2023-03-01T13:15:48;12.78;27.34
72952;HTU21D;61102;51.956;5.878;2023-03-01T13:20:47;13.60;26.23
72952;HTU21D;61102;51.956;5.878;2023-03-01T13:23:36;13.70;25.69
72952;HTU21D;61102;51.956;5.878;2023-03-01T13:26:03;13.61;25.99
72952;HTU21D;61102;51.956;5.878;2023-03-01T13:33:51;15.07;24.89
72952;HTU21D;61102;51.956;5.878;2023-03-01T13:39:00;16.02;23.56
72952;HTU21D;61102;51.956;5.878;2023-03-01T13:49:43;17.83;21.29
72952;HTU21D;61102;51.956;5.878;2023-03-01T13:52:48;17.97;20.83
72952;HTU21D;61102;51.956;5.878;2023-03-01T13:57:43;18.07;20.20
72952;HTU21D;61102;51.956;5.878;2023-03-01T14:00:33;18.25;19.76
72952;HTU21D;61102;51.956;5.878;2023-03-01T14:03:19;18.34;19.50
72952;HTU21D;61102;51.956;5.878;2023-03-01T14:08:26;18.70;19.30
72952;HTU21D;61102;51.956;5.878;2023-03-01T14:11:13;18.99;19.50
72952;HTU21D;61102;51.956;5.878;2023-03-01T14:19:17;16.34;22.45
72952;HTU21D;61102;51.956;5.878;2023-03-01T14:21:44;15.24;23.41
72952;HTU21D;61102;51.956;5.878;2023-03-01T14:24:21;14.37;24.46
72952;HTU21D;61102;51.956;5.878;2023-03-01T14:26:49;13.73;25.45
72952;HTU21D;61102;51.956;5.878;2023-03-01T14:29:43;13.29;25.87
72952;HTU21D;61102;51.956;5.878;2023-03-01T14:34:46;12.75;27.03
72952;HTU21D;61102;51.956;5.878;2023-03-01T14:37:32;12.53;27.55
72952;HTU21D;61102;51.956;5.878;2023-03-01T14:40:00;12.32;27.57
72952;HTU21D;61102;51.956;5.878;2023-03-01T14:42:36;12.17;28.10
72952;HTU21D;61102;51.956;5.878;2023-03-01T14:45:03;12.00;28.12
72952;HTU21D;61102;51.956;5.878;2023-03-01T14:47:31;12.35;27.39
72952;HTU21D;61102;51.956;5.878;2023-03-01T14:50:33;11.92;27.84
72952;HTU21D;61102;51.956;5.878;2023-03-01T14:52:55;11.74;28.40
72952;HTU21D;61102;51.956;5.878;2023-03-01T14:55:27;11.62;28.38
72952;HTU21D;61102;51.956;5.878;2023-03-01T14:57:54;11.54;28.53
72952;HTU21D;61102;51.956;5.878;2023-03-01T15:00:27;11.45;28.87
72952;HTU21D;61102;51.956;5.878;2023-03-01T15:02:55;11.43;28.98
72952;HTU21D;61102;51.956;5.878;2023-03-01T15:05:30;11.43;28.53
72952;HTU21D;61102;51.956;5.878;2023-03-01T15:07:58;11.33;28.39
72952;HTU21D;61102;51.956;5.878;2023-03-01T15:10:29;11.27;28.57
72952;HTU21D;61102;51.956;5.878;2023-03-01T15:12:56;11.27;28.52
72952;HTU21D;61102;51.956;5.878;2023-03-01T15:17:58;11.16;28.22
72952;HTU21D;61102;51.956;5.878;2023-03-01T15:20:26;11.17;28.18
72952;HTU21D;61102;51.956;5.878;2023-03-01T15:22:58;11.11;28.34
72952;HTU21D;61102;51.956;5.878;2023-03-01T15:25:28;11.11;28.44
72952;HTU21D;61102;51.956;5.878;2023-03-01T15:27:57;11.10;28.52
72952;HTU21D;61102;51.956;5.878;2023-03-01T15:30:27;11.08;28.67
72952;HTU21D;61102;51.956;5.878;2023-03-01T15:35:57;11.02;28.96
72952;HTU21D;61102;51.956;5.878;2023-03-01T15:38:33;11.02;29.07
72952;HTU21D;61102;51.956;5.878;2023-03-01T15:41:03;10.98;29.15
72952;HTU21D;61102;51.956;5.878;2023-03-01T15:43:45;11.00;29.42
72952;HTU21D;61102;51.956;5.878;2023-03-01T15:46:33;11.02;29.43
72952;HTU21D;61102;51.956;5.878;2023-03-01T15:49:02;10.94;29.48
72952;HTU21D;61102;51.956;5.878;2023-03-01T15:51:35;10.90;29.74
72952;HTU21D;61102;51.956;5.878;2023-03-01T15:54:11;10.90;30.00
72952;HTU21D;61102;51.956;5.878;2023-03-01T15:56:41;10.90;29.96
72952;HTU21D;61102;51.956;5.878;2023-03-01T15:59:09;10.85;30.13
72952;HTU21D;61102;51.956;5.878;2023-03-01T16:01:37;10.84;30.14
72952;HTU21D;61102;51.956;5.878;2023-03-01T16:04:05;10.82;30.36
72952;HTU21D;61102;51.956;5.878;2023-03-01T16:06:32;10.81;30.38
72952;HTU21D;61102;51.956;5.878;2023-03-01T16:08:58;10.80;30.23
72952;HTU21D;61102;51.956;5.878;2023-03-01T16:11:24;10.77;30.35
72952;HTU21D;61102;51.956;5.878;2023-03-01T16:13:50;10.73;30.41
72952;HTU21D;61102;51.956;5.878;2023-03-01T16:16:17;10.70;30.42
72952;HTU21D;61102;51.956;5.878;2023-03-01T16:18:45;10.66;30.54
72952;HTU21D;61102;51.956;5.878;2023-03-01T16:21:23;10.71;30.37
72952;HTU21D;61102;51.956;5.878;2023-03-01T16:23:50;10.62;30.33
72952;HTU21D;61102;51.956;5.878;2023-03-01T16:26:17;10.63;30.02
72952;HTU21D;61102;51.956;5.878;2023-03-01T16:28:45;10.56;30.38
72952;HTU21D;61102;51.956;5.878;2023-03-01T16:31:11;10.53;30.43
72952;HTU21D;61102;51.956;5.878;2023-03-01T16:33:40;10.51;30.49
72952;HTU21D;61102;51.956;5.878;2023-03-01T16:36:08;10.44;30.57
72952;HTU21D;61102;51.956;5.878;2023-03-01T16:38:34;10.41;30.62
72952;HTU21D;61102;51.956;5.878;2023-03-01T16:41:01;10.36;30.64
72952;HTU21D;61102;51.956;5.878;2023-03-01T16:43:29;10.30;30.68
72952;HTU21D;61102;51.956;5.878;2023-03-01T16:45:55;10.30;30.71
72952;HTU21D;61102;51.956;5.878;2023-03-01T16:48:21;10.26;30.80
72952;HTU21D;61102;51.956;5.878;2023-03-01T16:50:58;10.24;31.03
72952;HTU21D;61102;51.956;5.878;2023-03-01T16:53:24;10.19;30.93
72952;HTU21D;61102;51.956;5.878;2023-03-01T16:55:58;10.14;31.18
72952;HTU21D;61102;51.956;5.878;2023-03-01T16:58:24;10.11;31.05
72952;HTU21D;61102;51.956;5.878;2023-03-01T17:00:54;10.08;31.28
72952;HTU21D;61102;51.956;5.878;2023-03-01T17:03:22;10.04;31.37
72952;HTU21D;61102;51.956;5.878;2023-03-01T17:05:48;9.99;31.48
72952;HTU21D;61102;51.956;5.878;2023-03-01T17:08:15;9.93;31.66
72952;HTU21D;61102;51.956;5.878;2023-03-01T17:10:42;9.89;31.79
72952;HTU21D;61102;51.956;5.878;2023-03-01T17:13:09;9.83;31.94
72952;HTU21D;61102;51.956;5.878;2023-03-01T17:15:38;9.80;32.14
72952;HTU21D;61102;51.956;5.878;2023-03-01T17:18:04;9.76;32.23
72952;HTU21D;61102;51.956;5.878;2023-03-01T17:20:34;9.70;32.36
72952;HTU21D;61102;51.956;5.878;2023-03-01T17:23:00;9.65;32.48
72952;HTU21D;61102;51.956;5.878;2023-03-01T17:25:27;9.64;32.58
72952;HTU21D;61102;51.956;5.878;2023-03-01T17:27:53;9.59;32.71
72952;HTU21D;61102;51.956;5.878;2023-03-01T17:30:19;9.54;32.83
72952;HTU21D;61102;51.956;5.878;2023-03-01T17:32:45;9.49;32.99
72952;HTU21D;61102;51.956;5.878;2023-03-01T17:35:14;9.45;33.16
72952;HTU21D;61102;51.956;5.878;2023-03-01T17:37:40;9.40;33.27
72952;HTU21D;61102;51.956;5.878;2023-03-01T17:40:14;9.35;33.38
72952;HTU21D;61102;51.956;5.878;2023-03-01T17:42:40;9.33;33.45
72952;HTU21D;61102;51.956;5.878;2023-03-01T17:45:06;9.24;33.59
72952;HTU21D;61102;51.956;5.878;2023-03-01T17:47:32;9.20;33.70
72952;HTU21D;61102;51.956;5.878;2023-03-01T17:49:58;9.15;33.89
72952;HTU21D;61102;51.956;5.878;2023-03-01T17:52:25;9.10;33.95
72952;HTU21D;61102;51.956;5.878;2023-03-01T17:54:51;9.04;34.05
72952;HTU21D;61102;51.956;5.878;2023-03-01T17:57:17;9.01;34.21